sensor_id;sensor_type;location;lat;lon;timestamp;P1;durP1;ratioP1;P2;durP2;ratioP2
2544;SDS011;36212;48.838;9.142;2022-11-20T00:00:21;15.75;;;12.18;;
2544;SDS011;36212;48.838;9.142;2022-11-20T00:02:53;27.90;;;13.13;;
2544;SDS011;36212;48.838;9.142;2022-11-20T00:05:25;13.32;;;11.93;;
2544;SDS011;36212;48.838;9.142;2022-11-20T00:07:57;19.20;;;13.45;;
2544;SDS011;36212;48.838;9.142;2022-11-20T00:10:29;21.30;;;14.13;;
2544;SDS011;36212;48.838;9.142;2022-11-20T00:13:03;18.73;;;12.77;;
2544;SDS011;36212;48.838;9.142;2022-11-20T00:15:36;14.65;;;12.38;;
2544;SDS011;36212;48.838;9.142;2022-11-20T00:18:08;19.77;;;13.20;;
2544;SDS011;36212;48.838;9.142;2022-11-20T00:20:40;15.30;;;12.63;;
2544;SDS011;36212;48.838;9.142;2022-11-20T00:23:12;19.50;;;13.63;;
2544;SDS011;36212;48.838;9.142;2022-11-20T00:25:44;14.88;;;12.38;;
2544;SDS011;36212;48.838;9.142;2022-11-20T00:28:16;14.40;;;11.50;;
2544;SDS011;36212;48.838;9.142;2022-11-20T00:30:48;12.38;;;10.93;;
2544;SDS011;36212;48.838;9.142;2022-11-20T00:33:20;14.20;;;11.63;;
2544;SDS011;36212;48.838;9.142;2022-11-20T00:35:52;12.68;;;11.40;;
2544;SDS011;36212;48.838;9.142;2022-11-20T00:38:44;13.40;;;11.07;;
2544;SDS011;36212;48.838;9.142;2022-11-20T00:41:16;11.10;;;10.00;;
2544;SDS011;36212;48.838;9.142;2022-11-20T00:43:49;11.27;;;9.88;;
2544;SDS011;36212;48.838;9.142;2022-11-20T00:46:25;12.43;;;10.82;;
2544;SDS011;36212;48.838;9.142;2022-11-20T00:48:58;11.98;;;10.77;;
2544;SDS011;36212;48.838;9.142;2022-11-20T00:51:30;13.23;;;10.98;;
2544;SDS011;36212;48.838;9.142;2022-11-20T00:54:02;10.70;;;9.70;;
2544;SDS011;36212;48.838;9.142;2022-11-20T00:56:34;13.05;;;11.45;;
2544;SDS011;36212;48.838;9.142;2022-11-20T00:59:08;11.60;;;10.23;;
2544;SDS011;36212;48.838;9.142;2022-11-20T01:01:41;12.32;;;11.05;;
2544;SDS011;36212;48.838;9.142;2022-11-20T01:04:13;12.27;;;10.85;;
2544;SDS011;36212;48.838;9.142;2022-11-20T01:06:45;10.98;;;9.88;;
2544;SDS011;36212;48.838;9.142;2022-11-20T01:09:17;10.45;;;9.45;;
2544;SDS011;36212;48.838;9.142;2022-11-20T01:11:49;10.07;;;8.93;;
2544;SDS011;36212;48.838;9.142;2022-11-20T01:14:21;12.48;;;9.60;;
2544;SDS011;36212;48.838;9.142;2022-11-20T01:17:06;10.48;;;9.48;;
2544;SDS011;36212;48.838;9.142;2022-11-20T01:19:38;9.70;;;8.70;;
2544;SDS011;36212;48.838;9.142;2022-11-20T01:22:10;10.80;;;9.15;;
2544;SDS011;36212;48.838;9.142;2022-11-20T01:24:42;12.25;;;11.00;;
2544;SDS011;36212;48.838;9.142;2022-11-20T01:27:14;10.73;;;9.63;;
2544;SDS011;36212;48.838;9.142;2022-11-20T01:29:46;9.85;;;8.90;;
2544;SDS011;36212;48.838;9.142;2022-11-20T01:32:18;9.65;;;8.25;;
2544;SDS011;36212;48.838;9.142;2022-11-20T01:34:50;9.38;;;8.48;;
2544;SDS011;36212;48.838;9.142;2022-11-20T01:37:22;10.05;;;7.68;;
2544;SDS011;36212;48.838;9.142;2022-11-20T01:39:54;8.20;;;7.13;;
2544;SDS011;36212;48.838;9.142;2022-11-20T01:42:26;7.85;;;7.18;;
2544;SDS011;36212;48.838;9.142;2022-11-20T01:48:38;8.20;;;6.90;;
2544;SDS011;36212;48.838;9.142;2022-11-20T01:54:36;7.40;;;6.68;;
2544;SDS011;36212;48.838;9.142;2022-11-20T01:57:18;8.98;;;7.80;;
2544;SDS011;36212;48.838;9.142;2022-11-20T01:59:57;8.02;;;7.22;;
2544;SDS011;36212;48.838;9.142;2022-11-20T02:02:40;8.15;;;7.45;;
2544;SDS011;36212;48.838;9.142;2022-11-20T02:08:11;8.73;;;7.93;;
2544;SDS011;36212;48.838;9.142;2022-11-20T02:10:44;9.88;;;8.90;;
2544;SDS011;36212;48.838;9.142;2022-11-20T02:13:24;9.55;;;8.65;;
2544;SDS011;36212;48.838;9.142;2022-11-20T02:16:16;9.07;;;8.27;;
2544;SDS011;36212;48.838;9.142;2022-11-20T02:18:59;10.77;;;9.60;;
2544;SDS011;36212;48.838;9.142;2022-11-20T02:21:39;14.05;;;10.05;;
2544;SDS011;36212;48.838;9.142;2022-11-20T02:24:25;12.20;;;10.27;;
2544;SDS011;36212;48.838;9.142;2022-11-20T02:27:02;11.15;;;10.05;;
2544;SDS011;36212;48.838;9.142;2022-11-20T02:29:44;11.32;;;10.15;;
2544;SDS011;36212;48.838;9.142;2022-11-20T02:32:32;11.63;;;10.32;;
2544;SDS011;36212;48.838;9.142;2022-11-20T02:38:10;10.75;;;9.68;;
2544;SDS011;36212;48.838;9.142;2022-11-20T02:40:44;10.10;;;8.82;;
2544;SDS011;36212;48.838;9.142;2022-11-20T02:45:58;9.27;;;8.38;;
2544;SDS011;36212;48.838;9.142;2022-11-20T02:48:30;9.60;;;8.70;;
2544;SDS011;36212;48.838;9.142;2022-11-20T02:51:04;9.07;;;8.30;;
2544;SDS011;36212;48.838;9.142;2022-11-20T02:53:36;8.68;;;7.72;;
2544;SDS011;36212;48.838;9.142;2022-11-20T02:56:08;7.85;;;7.15;;
2544;SDS011;36212;48.838;9.142;2022-11-20T02:58:40;7.65;;;7.03;;
2544;SDS011;36212;48.838;9.142;2022-11-20T03:01:12;7.75;;;7.05;;
2544;SDS011;36212;48.838;9.142;2022-11-20T03:03:44;8.30;;;7.60;;
2544;SDS011;36212;48.838;9.142;2022-11-20T03:06:18;7.40;;;6.80;;
2544;SDS011;36212;48.838;9.142;2022-11-20T03:08:50;7.18;;;6.47;;
2544;SDS011;36212;48.838;9.142;2022-11-20T03:11:22;8.25;;;7.47;;
2544;SDS011;36212;48.838;9.142;2022-11-20T03:13:54;7.03;;;6.43;;
2544;SDS011;36212;48.838;9.142;2022-11-20T03:16:26;7.30;;;6.55;;
2544;SDS011;36212;48.838;9.142;2022-11-20T03:18:58;7.63;;;7.03;;
2544;SDS011;36212;48.838;9.142;2022-11-20T03:21:30;8.20;;;7.40;;
2544;SDS011;36212;48.838;9.142;2022-11-20T03:24:04;7.22;;;6.63;;
2544;SDS011;36212;48.838;9.142;2022-11-20T03:26:38;7.53;;;6.82;;
2544;SDS011;36212;48.838;9.142;2022-11-20T03:29:11;5.80;;;5.30;;
2544;SDS011;36212;48.838;9.142;2022-11-20T03:31:42;6.07;;;5.60;;
2544;SDS011;36212;48.838;9.142;2022-11-20T03:34:15;6.78;;;6.18;;
2544;SDS011;36212;48.838;9.142;2022-11-20T03:36:47;5.85;;;5.35;;
2544;SDS011;36212;48.838;9.142;2022-11-20T03:39:19;5.65;;;5.15;;
2544;SDS011;36212;48.838;9.142;2022-11-20T03:41:51;5.60;;;5.20;;
2544;SDS011;36212;48.838;9.142;2022-11-20T03:44:23;5.68;;;5.22;;
2544;SDS011;36212;48.838;9.142;2022-11-20T03:46:56;6.88;;;5.50;;
2544;SDS011;36212;48.838;9.142;2022-11-20T03:49:28;5.68;;;5.05;;
2544;SDS011;36212;48.838;9.142;2022-11-20T03:52:00;5.40;;;4.90;;
2544;SDS011;36212;48.838;9.142;2022-11-20T03:54:32;5.00;;;4.60;;
2544;SDS011;36212;48.838;9.142;2022-11-20T03:57:04;5.00;;;4.60;;
2544;SDS011;36212;48.838;9.142;2022-11-20T03:59:36;5.43;;;4.90;;
2544;SDS011;36212;48.838;9.142;2022-11-20T04:02:08;5.43;;;5.05;;
2544;SDS011;36212;48.838;9.142;2022-11-20T04:04:40;4.95;;;4.55;;
2544;SDS011;36212;48.838;9.142;2022-11-20T04:07:12;5.32;;;4.93;;
2544;SDS011;36212;48.838;9.142;2022-11-20T04:09:44;4.72;;;4.43;;
2544;SDS011;36212;48.838;9.142;2022-11-20T04:12:16;5.32;;;4.82;;
2544;SDS011;36212;48.838;9.142;2022-11-20T04:14:48;5.53;;;5.13;;
2544;SDS011;36212;48.838;9.142;2022-11-20T04:17:20;5.55;;;5.10;;
2544;SDS011;36212;48.838;9.142;2022-11-20T04:19:52;4.78;;;4.38;;
2544;SDS011;36212;48.838;9.142;2022-11-20T04:22:24;5.00;;;4.65;;
2544;SDS011;36212;48.838;9.142;2022-11-20T04:24:56;5.05;;;4.20;;
2544;SDS011;36212;48.838;9.142;2022-11-20T04:27:28;5.63;;;5.20;;
2544;SDS011;36212;48.838;9.142;2022-11-20T04:30:02;6.00;;;4.93;;
2544;SDS011;36212;48.838;9.142;2022-11-20T04:32:34;6.93;;;4.70;;
2544;SDS011;36212;48.838;9.142;2022-11-20T04:35:06;5.38;;;4.88;;
2544;SDS011;36212;48.838;9.142;2022-11-20T04:40:17;6.03;;;5.47;;
2544;SDS011;36212;48.838;9.142;2022-11-20T04:42:49;5.82;;;5.32;;
2544;SDS011;36212;48.838;9.142;2022-11-20T04:45:21;4.72;;;4.30;;
2544;SDS011;36212;48.838;9.142;2022-11-20T04:47:55;5.70;;;5.30;;
2544;SDS011;36212;48.838;9.142;2022-11-20T04:50:27;5.18;;;4.75;;
2544;SDS011;36212;48.838;9.142;2022-11-20T04:52:58;5.28;;;4.80;;
2544;SDS011;36212;48.838;9.142;2022-11-20T04:55:30;4.65;;;4.35;;
2544;SDS011;36212;48.838;9.142;2022-11-20T04:58:02;5.40;;;5.00;;
2544;SDS011;36212;48.838;9.142;2022-11-20T05:00:35;4.90;;;4.60;;
2544;SDS011;36212;48.838;9.142;2022-11-20T05:03:07;6.13;;;5.63;;
2544;SDS011;36212;48.838;9.142;2022-11-20T05:05:39;5.75;;;5.30;;
2544;SDS011;36212;48.838;9.142;2022-11-20T05:08:11;5.97;;;5.38;;
2544;SDS011;36212;48.838;9.142;2022-11-20T05:10:43;5.60;;;5.10;;
2544;SDS011;36212;48.838;9.142;2022-11-20T05:13:14;5.38;;;4.43;;
2544;SDS011;36212;48.838;9.142;2022-11-20T05:15:47;6.57;;;5.97;;
2544;SDS011;36212;48.838;9.142;2022-11-20T05:18:19;5.18;;;4.78;;
2544;SDS011;36212;48.838;9.142;2022-11-20T05:20:54;6.13;;;5.53;;
2544;SDS011;36212;48.838;9.142;2022-11-20T05:23:28;4.80;;;4.50;;
2544;SDS011;36212;48.838;9.142;2022-11-20T05:26:02;4.88;;;4.47;;
2544;SDS011;36212;48.838;9.142;2022-11-20T05:28:36;5.80;;;5.40;;
2544;SDS011;36212;48.838;9.142;2022-11-20T05:31:08;5.97;;;5.47;;
2544;SDS011;36212;48.838;9.142;2022-11-20T05:33:57;4.80;;;4.40;;
2544;SDS011;36212;48.838;9.142;2022-11-20T05:36:29;6.22;;;5.00;;
2544;SDS011;36212;48.838;9.142;2022-11-20T05:39:01;7.78;;;4.50;;
2544;SDS011;36212;48.838;9.142;2022-11-20T05:41:34;5.43;;;4.93;;
2544;SDS011;36212;48.838;9.142;2022-11-20T05:44:05;5.00;;;4.60;;
2544;SDS011;36212;48.838;9.142;2022-11-20T05:46:40;4.30;;;3.90;;
2544;SDS011;36212;48.838;9.142;2022-11-20T05:49:12;5.47;;;4.75;;
2544;SDS011;36212;48.838;9.142;2022-11-20T05:51:44;5.75;;;4.85;;
2544;SDS011;36212;48.838;9.142;2022-11-20T05:54:16;5.85;;;5.00;;
2544;SDS011;36212;48.838;9.142;2022-11-20T05:59:24;5.40;;;5.05;;
2544;SDS011;36212;48.838;9.142;2022-11-20T06:01:56;5.10;;;4.80;;
2544;SDS011;36212;48.838;9.142;2022-11-20T06:04:28;5.43;;;5.03;;
2544;SDS011;36212;48.838;9.142;2022-11-20T06:07:00;12.80;;;5.05;;
2544;SDS011;36212;48.838;9.142;2022-11-20T06:09:32;4.75;;;4.35;;
2544;SDS011;36212;48.838;9.142;2022-11-20T06:12:05;4.88;;;4.50;;
2544;SDS011;36212;48.838;9.142;2022-11-20T06:14:37;5.55;;;5.15;;
2544;SDS011;36212;48.838;9.142;2022-11-20T06:17:09;4.50;;;4.20;;
2544;SDS011;36212;48.838;9.142;2022-11-20T06:19:41;5.70;;;4.63;;
2544;SDS011;36212;48.838;9.142;2022-11-20T06:22:13;4.80;;;4.40;;
2544;SDS011;36212;48.838;9.142;2022-11-20T06:24:47;4.60;;;4.30;;
2544;SDS011;36212;48.838;9.142;2022-11-20T06:29:55;4.60;;;4.30;;
2544;SDS011;36212;48.838;9.142;2022-11-20T06:32:32;4.40;;;4.10;;
2544;SDS011;36212;48.838;9.142;2022-11-20T06:35:04;4.25;;;3.95;;
2544;SDS011;36212;48.838;9.142;2022-11-20T06:37:37;3.88;;;3.58;;
2544;SDS011;36212;48.838;9.142;2022-11-20T06:40:09;4.07;;;3.70;;
2544;SDS011;36212;48.838;9.142;2022-11-20T06:42:42;4.07;;;3.88;;
2544;SDS011;36212;48.838;9.142;2022-11-20T06:45:14;4.38;;;4.07;;
2544;SDS011;36212;48.838;9.142;2022-11-20T06:47:46;3.75;;;3.45;;
2544;SDS011;36212;48.838;9.142;2022-11-20T06:50:18;3.45;;;3.25;;
2544;SDS011;36212;48.838;9.142;2022-11-20T06:52:50;3.90;;;3.70;;
2544;SDS011;36212;48.838;9.142;2022-11-20T06:55:22;2.88;;;2.67;;
2544;SDS011;36212;48.838;9.142;2022-11-20T06:57:54;3.85;;;3.50;;
2544;SDS011;36212;48.838;9.142;2022-11-20T07:00:26;3.15;;;2.95;;
2544;SDS011;36212;48.838;9.142;2022-11-20T07:03:02;3.72;;;3.53;;
2544;SDS011;36212;48.838;9.142;2022-11-20T07:05:38;3.38;;;3.17;;
2544;SDS011;36212;48.838;9.142;2022-11-20T07:08:11;3.72;;;3.40;;
2544;SDS011;36212;48.838;9.142;2022-11-20T07:10:43;3.45;;;3.22;;
2544;SDS011;36212;48.838;9.142;2022-11-20T07:13:15;3.20;;;2.95;;
2544;SDS011;36212;48.838;9.142;2022-11-20T07:18:54;3.58;;;3.38;;
2544;SDS011;36212;48.838;9.142;2022-11-20T07:21:26;2.95;;;2.60;;
2544;SDS011;36212;48.838;9.142;2022-11-20T07:23:58;3.63;;;3.25;;
2544;SDS011;36212;48.838;9.142;2022-11-20T07:26:30;3.25;;;3.05;;
2544;SDS011;36212;48.838;9.142;2022-11-20T07:29:02;3.50;;;3.20;;
2544;SDS011;36212;48.838;9.142;2022-11-20T07:31:34;2.78;;;2.58;;
2544;SDS011;36212;48.838;9.142;2022-11-20T07:34:06;3.90;;;3.60;;
2544;SDS011;36212;48.838;9.142;2022-11-20T07:36:39;3.67;;;3.47;;
2544;SDS011;36212;48.838;9.142;2022-11-20T07:39:11;3.20;;;3.00;;
2544;SDS011;36212;48.838;9.142;2022-11-20T07:41:43;2.80;;;2.70;;
2544;SDS011;36212;48.838;9.142;2022-11-20T07:44:15;3.30;;;3.08;;
2544;SDS011;36212;48.838;9.142;2022-11-20T07:46:55;3.40;;;3.20;;
2544;SDS011;36212;48.838;9.142;2022-11-20T07:49:27;3.58;;;3.25;;
2544;SDS011;36212;48.838;9.142;2022-11-20T07:51:59;3.60;;;3.40;;
2544;SDS011;36212;48.838;9.142;2022-11-20T07:54:35;3.55;;;3.25;;
2544;SDS011;36212;48.838;9.142;2022-11-20T07:57:07;2.75;;;2.55;;
2544;SDS011;36212;48.838;9.142;2022-11-20T07:59:40;3.30;;;3.00;;
2544;SDS011;36212;48.838;9.142;2022-11-20T08:02:12;2.90;;;2.80;;
2544;SDS011;36212;48.838;9.142;2022-11-20T08:04:44;2.83;;;2.70;;
2544;SDS011;36212;48.838;9.142;2022-11-20T08:07:17;3.38;;;3.08;;
2544;SDS011;36212;48.838;9.142;2022-11-20T08:09:49;3.47;;;3.22;;
2544;SDS011;36212;48.838;9.142;2022-11-20T08:12:21;2.95;;;2.65;;
2544;SDS011;36212;48.838;9.142;2022-11-20T08:15:31;3.28;;;3.08;;
2544;SDS011;36212;48.838;9.142;2022-11-20T08:18:05;3.50;;;3.30;;
2544;SDS011;36212;48.838;9.142;2022-11-20T08:21:02;3.38;;;3.13;;
2544;SDS011;36212;48.838;9.142;2022-11-20T08:23:35;3.40;;;3.10;;
2544;SDS011;36212;48.838;9.142;2022-11-20T08:26:07;4.00;;;3.20;;
2544;SDS011;36212;48.838;9.142;2022-11-20T08:28:40;2.53;;;2.42;;
2544;SDS011;36212;48.838;9.142;2022-11-20T08:31:12;2.88;;;2.70;;
2544;SDS011;36212;48.838;9.142;2022-11-20T08:33:44;2.42;;;2.33;;
2544;SDS011;36212;48.838;9.142;2022-11-20T08:36:20;2.80;;;2.60;;
2544;SDS011;36212;48.838;9.142;2022-11-20T08:38:54;2.25;;;2.15;;
2544;SDS011;36212;48.838;9.142;2022-11-20T08:41:27;2.67;;;2.50;;
2544;SDS011;36212;48.838;9.142;2022-11-20T08:44:03;2.53;;;2.42;;
2544;SDS011;36212;48.838;9.142;2022-11-20T08:46:39;2.05;;;1.95;;
2544;SDS011;36212;48.838;9.142;2022-11-20T08:49:13;2.22;;;2.13;;
2544;SDS011;36212;48.838;9.142;2022-11-20T08:51:47;2.20;;;2.10;;
2544;SDS011;36212;48.838;9.142;2022-11-20T08:54:25;2.30;;;2.20;;
2544;SDS011;36212;48.838;9.142;2022-11-20T08:56:57;2.50;;;1.90;;
2544;SDS011;36212;48.838;9.142;2022-11-20T08:59:29;2.85;;;2.05;;
2544;SDS011;36212;48.838;9.142;2022-11-20T09:02:22;1.90;;;1.80;;
2544;SDS011;36212;48.838;9.142;2022-11-20T09:04:54;2.00;;;1.90;;
2544;SDS011;36212;48.838;9.142;2022-11-20T09:07:26;2.10;;;1.60;;
2544;SDS011;36212;48.838;9.142;2022-11-20T09:09:59;1.95;;;1.85;;
2544;SDS011;36212;48.838;9.142;2022-11-20T09:12:51;1.88;;;1.70;;
2544;SDS011;36212;48.838;9.142;2022-11-20T09:15:25;1.80;;;1.70;;
2544;SDS011;36212;48.838;9.142;2022-11-20T09:17:58;1.60;;;1.50;;
2544;SDS011;36212;48.838;9.142;2022-11-20T09:20:33;2.00;;;1.80;;
2544;SDS011;36212;48.838;9.142;2022-11-20T09:23:05;1.80;;;1.70;;
2544;SDS011;36212;48.838;9.142;2022-11-20T09:25:38;2.40;;;1.70;;
2544;SDS011;36212;48.838;9.142;2022-11-20T09:28:10;1.50;;;1.40;;
2544;SDS011;36212;48.838;9.142;2022-11-20T09:30:42;1.73;;;1.63;;
2544;SDS011;36212;48.838;9.142;2022-11-20T09:33:14;1.88;;;1.50;;
2544;SDS011;36212;48.838;9.142;2022-11-20T09:35:47;1.70;;;1.60;;
2544;SDS011;36212;48.838;9.142;2022-11-20T09:38:19;1.70;;;1.60;;
2544;SDS011;36212;48.838;9.142;2022-11-20T09:40:55;1.65;;;1.55;;
2544;SDS011;36212;48.838;9.142;2022-11-20T09:47:05;1.63;;;1.52;;
2544;SDS011;36212;48.838;9.142;2022-11-20T09:50:19;1.80;;;1.70;;
2544;SDS011;36212;48.838;9.142;2022-11-20T09:53:10;1.67;;;1.58;;
2544;SDS011;36212;48.838;9.142;2022-11-20T09:55:57;1.85;;;1.75;;
2544;SDS011;36212;48.838;9.142;2022-11-20T09:58:41;1.80;;;1.70;;
2544;SDS011;36212;48.838;9.142;2022-11-20T10:01:23;1.98;;;1.88;;
2544;SDS011;36212;48.838;9.142;2022-11-20T10:04:04;1.80;;;1.70;;
2544;SDS011;36212;48.838;9.142;2022-11-20T10:06:59;1.60;;;1.50;;
2544;SDS011;36212;48.838;9.142;2022-11-20T10:10:22;3.65;;;1.67;;
2544;SDS011;36212;48.838;9.142;2022-11-20T10:19:47;1.50;;;1.40;;
2544;SDS011;36212;48.838;9.142;2022-11-20T10:29:13;1.88;;;1.77;;
2544;SDS011;36212;48.838;9.142;2022-11-20T10:32:03;1.90;;;1.80;;
2544;SDS011;36212;48.838;9.142;2022-11-20T10:34:52;2.15;;;2.05;;
2544;SDS011;36212;48.838;9.142;2022-11-20T10:37:44;1.90;;;1.80;;
2544;SDS011;36212;48.838;9.142;2022-11-20T10:40:37;1.60;;;1.50;;
2544;SDS011;36212;48.838;9.142;2022-11-20T10:43:17;2.45;;;1.98;;
2544;SDS011;36212;48.838;9.142;2022-11-20T10:48:45;1.60;;;1.50;;
2544;SDS011;36212;48.838;9.142;2022-11-20T10:51:39;1.85;;;1.75;;
2544;SDS011;36212;48.838;9.142;2022-11-20T11:00:38;1.90;;;1.80;;
2544;SDS011;36212;48.838;9.142;2022-11-20T11:03:44;2.33;;;1.85;;
2544;SDS011;36212;48.838;9.142;2022-11-20T11:06:17;2.42;;;2.33;;
2544;SDS011;36212;48.838;9.142;2022-11-20T11:09:09;3.60;;;2.50;;
2544;SDS011;36212;48.838;9.142;2022-11-20T11:11:51;2.33;;;2.20;;
2544;SDS011;36212;48.838;9.142;2022-11-20T11:14:23;2.38;;;2.28;;
2544;SDS011;36212;48.838;9.142;2022-11-20T11:16:57;2.40;;;2.25;;
2544;SDS011;36212;48.838;9.142;2022-11-20T11:19:30;2.70;;;2.58;;
2544;SDS011;36212;48.838;9.142;2022-11-20T11:22:16;2.65;;;2.45;;
2544;SDS011;36212;48.838;9.142;2022-11-20T11:24:51;2.65;;;2.53;;
2544;SDS011;36212;48.838;9.142;2022-11-20T11:27:25;3.03;;;2.83;;
2544;SDS011;36212;48.838;9.142;2022-11-20T11:30:17;2.40;;;2.30;;
2544;SDS011;36212;48.838;9.142;2022-11-20T11:33:03;2.83;;;2.63;;
2544;SDS011;36212;48.838;9.142;2022-11-20T11:35:46;3.30;;;3.10;;
2544;SDS011;36212;48.838;9.142;2022-11-20T11:38:40;3.47;;;3.15;;
2544;SDS011;36212;48.838;9.142;2022-11-20T11:41:25;2.95;;;2.83;;
2544;SDS011;36212;48.838;9.142;2022-11-20T11:44:21;3.72;;;3.53;;
2544;SDS011;36212;48.838;9.142;2022-11-20T11:47:45;3.70;;;3.40;;
2544;SDS011;36212;48.838;9.142;2022-11-20T11:50:27;5.68;;;3.80;;
2544;SDS011;36212;48.838;9.142;2022-11-20T11:55:57;3.65;;;3.35;;
2544;SDS011;36212;48.838;9.142;2022-11-20T11:58:47;2.90;;;2.70;;
2544;SDS011;36212;48.838;9.142;2022-11-20T12:04:46;2.92;;;2.70;;
2544;SDS011;36212;48.838;9.142;2022-11-20T12:11:04;3.08;;;2.85;;
2544;SDS011;36212;48.838;9.142;2022-11-20T12:14:13;2.55;;;2.35;;
2544;SDS011;36212;48.838;9.142;2022-11-20T12:17:13;2.92;;;2.70;;
2544;SDS011;36212;48.838;9.142;2022-11-20T12:19:46;2.13;;;2.03;;
2544;SDS011;36212;48.838;9.142;2022-11-20T12:25:18;2.15;;;1.98;;
2544;SDS011;36212;48.838;9.142;2022-11-20T12:28:05;3.58;;;1.92;;
2544;SDS011;36212;48.838;9.142;2022-11-20T12:34:41;3.13;;;2.20;;
2544;SDS011;36212;48.838;9.142;2022-11-20T12:50:48;2.17;;;1.95;;
2544;SDS011;36212;48.838;9.142;2022-11-20T13:00:02;2.35;;;2.10;;
2544;SDS011;36212;48.838;9.142;2022-11-20T13:06:05;1.73;;;1.63;;
2544;SDS011;36212;48.838;9.142;2022-11-20T13:08:55;2.25;;;2.15;;
2544;SDS011;36212;48.838;9.142;2022-11-20T13:11:41;2.05;;;1.90;;
2544;SDS011;36212;48.838;9.142;2022-11-20T13:14:37;1.90;;;1.80;;
2544;SDS011;36212;48.838;9.142;2022-11-20T13:20:34;2.75;;;2.33;;
2544;SDS011;36212;48.838;9.142;2022-11-20T13:23:22;3.05;;;1.70;;
2544;SDS011;36212;48.838;9.142;2022-11-20T13:26:04;3.20;;;2.95;;
2544;SDS011;36212;48.838;9.142;2022-11-20T13:29:09;1.92;;;1.67;;
2544;SDS011;36212;48.838;9.142;2022-11-20T13:31:48;2.05;;;1.83;;
2544;SDS011;36212;48.838;9.142;2022-11-20T13:34:24;1.67;;;1.58;;
2544;SDS011;36212;48.838;9.142;2022-11-20T13:36:59;1.70;;;1.60;;
2544;SDS011;36212;48.838;9.142;2022-11-20T13:39:34;1.92;;;1.70;;
2544;SDS011;36212;48.838;9.142;2022-11-20T13:45:02;3.25;;;1.60;;
2544;SDS011;36212;48.838;9.142;2022-11-20T13:47:53;2.08;;;1.83;;
2544;SDS011;36212;48.838;9.142;2022-11-20T13:50:47;2.80;;;2.40;;
2544;SDS011;36212;48.838;9.142;2022-11-20T14:00:13;1.95;;;1.30;;
2544;SDS011;36212;48.838;9.142;2022-11-20T14:03:01;2.00;;;1.90;;
2544;SDS011;36212;48.838;9.142;2022-11-20T14:06:02;1.60;;;1.50;;
2544;SDS011;36212;48.838;9.142;2022-11-20T14:08:46;6.82;;;1.50;;
2544;SDS011;36212;48.838;9.142;2022-11-20T14:11:26;4.40;;;1.75;;
2544;SDS011;36212;48.838;9.142;2022-11-20T14:14:10;1.92;;;1.60;;
2544;SDS011;36212;48.838;9.142;2022-11-20T14:16:49;2.25;;;1.55;;
2544;SDS011;36212;48.838;9.142;2022-11-20T14:19:27;1.70;;;1.40;;
2544;SDS011;36212;48.838;9.142;2022-11-20T14:22:07;2.03;;;1.92;;
2544;SDS011;36212;48.838;9.142;2022-11-20T14:27:59;1.90;;;1.80;;
2544;SDS011;36212;48.838;9.142;2022-11-20T14:30:43;2.63;;;1.65;;
2544;SDS011;36212;48.838;9.142;2022-11-20T14:33:18;2.00;;;1.88;;
2544;SDS011;36212;48.838;9.142;2022-11-20T14:35:56;1.90;;;1.70;;
2544;SDS011;36212;48.838;9.142;2022-11-20T14:38:31;1.90;;;1.80;;
2544;SDS011;36212;48.838;9.142;2022-11-20T14:41:08;1.90;;;1.80;;
2544;SDS011;36212;48.838;9.142;2022-11-20T14:43:55;2.60;;;1.90;;
2544;SDS011;36212;48.838;9.142;2022-11-20T14:46:29;2.22;;;1.60;;
2544;SDS011;36212;48.838;9.142;2022-11-20T14:49:05;3.60;;;1.80;;
2544;SDS011;36212;48.838;9.142;2022-11-20T14:51:42;1.83;;;1.73;;
2544;SDS011;36212;48.838;9.142;2022-11-20T14:54:17;2.22;;;2.13;;
2544;SDS011;36212;48.838;9.142;2022-11-20T14:56:59;1.77;;;1.60;;
2544;SDS011;36212;48.838;9.142;2022-11-20T14:59:34;2.20;;;2.00;;
2544;SDS011;36212;48.838;9.142;2022-11-20T15:02:10;2.10;;;2.00;;
2544;SDS011;36212;48.838;9.142;2022-11-20T15:04:45;1.88;;;1.77;;
2544;SDS011;36212;48.838;9.142;2022-11-20T15:07:28;3.13;;;2.85;;
2544;SDS011;36212;48.838;9.142;2022-11-20T15:10:07;3.30;;;3.10;;
2544;SDS011;36212;48.838;9.142;2022-11-20T15:12:55;2.90;;;2.70;;
2544;SDS011;36212;48.838;9.142;2022-11-20T15:18:31;2.20;;;2.03;;
2544;SDS011;36212;48.838;9.142;2022-11-20T15:21:14;2.45;;;2.35;;
2544;SDS011;36212;48.838;9.142;2022-11-20T15:23:49;2.75;;;2.58;;
2544;SDS011;36212;48.838;9.142;2022-11-20T15:26:26;2.65;;;2.45;;
2544;SDS011;36212;48.838;9.142;2022-11-20T15:28:59;3.03;;;2.83;;
2544;SDS011;36212;48.838;9.142;2022-11-20T15:31:32;3.55;;;2.85;;
2544;SDS011;36212;48.838;9.142;2022-11-20T15:34:13;4.18;;;3.13;;
2544;SDS011;36212;48.838;9.142;2022-11-20T15:36:47;5.80;;;3.50;;
2544;SDS011;36212;48.838;9.142;2022-11-20T15:39:20;2.78;;;2.58;;
2544;SDS011;36212;48.838;9.142;2022-11-20T15:41:52;4.28;;;2.50;;
2544;SDS011;36212;48.838;9.142;2022-11-20T15:44:25;3.15;;;2.90;;
2544;SDS011;36212;48.838;9.142;2022-11-20T15:46:58;2.63;;;2.53;;
2544;SDS011;36212;48.838;9.142;2022-11-20T15:49:31;3.28;;;3.08;;
2544;SDS011;36212;48.838;9.142;2022-11-20T15:52:05;6.47;;;3.03;;
2544;SDS011;36212;48.838;9.142;2022-11-20T15:54:41;3.42;;;3.08;;
2544;SDS011;36212;48.838;9.142;2022-11-20T15:57:14;3.38;;;3.13;;
2544;SDS011;36212;48.838;9.142;2022-11-20T15:59:47;3.72;;;3.42;;
2544;SDS011;36212;48.838;9.142;2022-11-20T16:02:21;4.75;;;3.50;;
2544;SDS011;36212;48.838;9.142;2022-11-20T16:04:53;4.32;;;3.72;;
2544;SDS011;36212;48.838;9.142;2022-11-20T16:07:26;5.05;;;4.47;;
2544;SDS011;36212;48.838;9.142;2022-11-20T16:09:59;4.55;;;4.25;;
2544;SDS011;36212;48.838;9.142;2022-11-20T16:12:34;4.50;;;4.20;;
2544;SDS011;36212;48.838;9.142;2022-11-20T16:15:46;3.55;;;3.33;;
2544;SDS011;36212;48.838;9.142;2022-11-20T16:18:31;8.25;;;7.50;;
2544;SDS011;36212;48.838;9.142;2022-11-20T16:21:10;8.55;;;7.65;;
2544;SDS011;36212;48.838;9.142;2022-11-20T16:23:45;4.47;;;4.07;;
2544;SDS011;36212;48.838;9.142;2022-11-20T16:26:18;4.75;;;4.45;;
2544;SDS011;36212;48.838;9.142;2022-11-20T16:28:52;4.07;;;3.78;;
2544;SDS011;36212;48.838;9.142;2022-11-20T16:31:26;4.38;;;3.97;;
2544;SDS011;36212;48.838;9.142;2022-11-20T16:34:03;6.13;;;5.00;;
2544;SDS011;36212;48.838;9.142;2022-11-20T16:36:45;4.68;;;4.22;;
2544;SDS011;36212;48.838;9.142;2022-11-20T16:39:19;4.15;;;3.72;;
2544;SDS011;36212;48.838;9.142;2022-11-20T16:41:55;5.20;;;3.53;;
2544;SDS011;36212;48.838;9.142;2022-11-20T16:44:27;3.70;;;3.50;;
2544;SDS011;36212;48.838;9.142;2022-11-20T16:46:59;2.65;;;2.45;;
2544;SDS011;36212;48.838;9.142;2022-11-20T16:49:32;3.03;;;2.70;;
2544;SDS011;36212;48.838;9.142;2022-11-20T16:52:05;8.45;;;2.80;;
2544;SDS011;36212;48.838;9.142;2022-11-20T16:54:39;4.18;;;2.50;;
2544;SDS011;36212;48.838;9.142;2022-11-20T16:57:12;3.60;;;3.30;;
2544;SDS011;36212;48.838;9.142;2022-11-20T16:59:44;3.33;;;3.13;;
2544;SDS011;36212;48.838;9.142;2022-11-20T17:02:18;3.67;;;3.38;;
2544;SDS011;36212;48.838;9.142;2022-11-20T17:04:51;4.63;;;4.22;;
2544;SDS011;36212;48.838;9.142;2022-11-20T17:07:24;3.53;;;3.22;;
2544;SDS011;36212;48.838;9.142;2022-11-20T17:09:57;3.65;;;3.45;;
2544;SDS011;36212;48.838;9.142;2022-11-20T17:12:31;3.50;;;3.30;;
2544;SDS011;36212;48.838;9.142;2022-11-20T17:15:04;3.92;;;3.70;;
2544;SDS011;36212;48.838;9.142;2022-11-20T17:17:37;4.07;;;3.78;;
2544;SDS011;36212;48.838;9.142;2022-11-20T17:20:10;4.40;;;4.10;;
2544;SDS011;36212;48.838;9.142;2022-11-20T17:22:45;4.70;;;4.25;;
2544;SDS011;36212;48.838;9.142;2022-11-20T17:25:18;6.30;;;5.50;;
2544;SDS011;36212;48.838;9.142;2022-11-20T17:27:51;6.72;;;5.38;;
2544;SDS011;36212;48.838;9.142;2022-11-20T17:30:25;5.50;;;5.00;;
2544;SDS011;36212;48.838;9.142;2022-11-20T17:32:59;4.57;;;4.22;;
2544;SDS011;36212;48.838;9.142;2022-11-20T17:35:34;4.75;;;4.45;;
2544;SDS011;36212;48.838;9.142;2022-11-20T17:38:08;4.85;;;4.50;;
2544;SDS011;36212;48.838;9.142;2022-11-20T17:40:41;4.20;;;3.92;;
2544;SDS011;36212;48.838;9.142;2022-11-20T17:43:16;3.88;;;3.58;;
2544;SDS011;36212;48.838;9.142;2022-11-20T17:45:49;3.70;;;3.40;;